Time;durP1;ratioP1;P1;durP2;ratioP2;P2;SDS_P1;SDS_P2;PMS_P1;PMS_P2;Temp;Humidity;BMP_temperature;BMP_pressure;BME280_temperature;BME280_humidity;BME280_pressure;Samples;Min_cycle;Max_cycle;Signal;HPM_P1;HPM_P2
2022/01/17 00:02:00;;;;;;;0.10;0.10;;;;;;;22.93;15.67;97176.97;5035328;28;20025;-73
2022/01/17 00:04:26;;;;;;;0.20;0.20;;;;;;;22.97;15.50;97175.13;5035012;28;20487;-73
2022/01/17 00:06:51;;;;;;;0.10;0.10;;;;;;;22.94;15.63;97159.50;5035086;28;20465;-73
2022/01/17 00:09:18;;;;;;;0.15;0.10;;;;;;;22.93;15.67;97157.13;5016961;28;20034;-73
2022/01/17 00:11:47;;;;;;;0.20;0.20;;;;;;;22.91;15.82;97160.22;5034606;28;20480;-73
2022/01/17 00:14:17;;;;;;;0.17;0.17;;;;;;;22.95;15.67;97144.75;5034684;28;20091;-73
2022/01/17 00:16:49;;;;;;;0.22;0.20;;;;;;;22.93;15.63;97149.75;5034693;28;20037;-73
2022/01/17 00:21:49;;;;;;;0.10;0.10;;;;;;;22.96;15.41;97130.00;5018157;28;20034;-72
2022/01/17 00:24:14;;;;;;;0.20;0.20;;;;;;;23.10;15.43;97134.28;5034669;28;20059;-72
2022/01/17 00:26:40;;;;;;;0.20;0.20;;;;;;;23.03;15.32;97130.19;5034467;28;20047;-74
2022/01/17 00:29:05;;;;;;;0.17;0.17;;;;;;;22.94;15.73;97113.22;5034276;28;20463;-73
2022/01/17 00:31:31;;;;;;;0.10;0.10;;;;;;;23.01;15.53;97120.78;5034533;28;20080;-72
2022/01/17 00:33:56;;;;;;;0.20;0.20;;;;;;;22.96;15.38;97108.22;5034125;28;20026;-73
2022/01/17 00:36:22;;;;;;;0.10;0.10;;;;;;;22.96;15.63;97086.44;5034400;28;20037;-73
2022/01/17 00:38:47;;;;;;;0.10;0.10;;;;;;;23.05;15.43;97078.91;5034247;28;20112;-73
2022/01/17 00:41:12;;;;;;;0.20;0.20;;;;;;;22.89;15.57;97075.38;5034392;28;20071;-73
2022/01/17 00:43:38;;;;;;;0.20;0.20;;;;;;;22.93;15.67;97080.91;5033955;28;20143;-73
2022/01/17 00:46:03;;;;;;;0.20;0.20;;;;;;;22.91;15.23;97073.06;5033881;28;20056;-72
2022/01/17 00:48:29;;;;;;;0.10;0.10;;;;;;;22.89;15.53;97061.75;5033976;28;20383;-73
2022/01/17 00:50:54;;;;;;;0.20;0.20;;;;;;;22.90;15.57;97049.69;5034127;28;20025;-74
2022/01/17 00:53:20;;;;;;;0.17;0.17;;;;;;;23.02;15.52;97052.34;5034401;28;20476;-72
2022/01/17 00:55:45;;;;;;;0.10;0.10;;;;;;;22.88;15.77;97033.72;5033946;28;20075;-72
2022/01/17 00:58:11;;;;;;;0.20;0.20;;;;;;;22.90;15.68;97025.19;5034081;28;20017;-73
2022/01/17 01:00:36;;;;;;;0.20;0.20;;;;;;;22.91;15.66;97015.13;5033849;28;20025;-73
2022/01/17 01:03:02;;;;;;;0.10;0.10;;;;;;;22.93;15.37;97002.72;5033702;28;20029;-73
2022/01/17 01:05:27;;;;;;;0.20;0.10;;;;;;;22.98;15.38;96991.56;5033970;28;20033;-73
2022/01/17 01:07:54;;;;;;;0.10;0.10;;;;;;;23.01;15.36;96981.91;5033809;28;20171;-73
2022/01/17 01:10:19;;;;;;;0.20;0.20;;;;;;;22.91;15.51;96975.06;5033577;28;20060;-73
2022/01/17 01:12:45;;;;;;;0.10;0.10;;;;;;;22.94;15.49;96968.91;5033240;28;20025;-73
2022/01/17 01:15:19;;;;;;;0.20;0.20;;;;;;;22.98;15.19;96955.38;5033533;28;20472;-73
2022/01/17 01:17:53;;;;;;;0.15;0.15;;;;;;;22.92;15.29;96946.72;5033602;28;20527;-73
2022/01/17 01:28:18;;;;;;;0.13;0.13;;;;;;;22.83;15.36;96903.31;5034015;28;20308;-73
2022/01/17 01:30:47;;;;;;;0.20;0.20;;;;;;;22.90;15.33;96902.69;5016047;28;20029;-73
2022/01/17 01:33:19;;;;;;;0.20;0.20;;;;;;;22.89;15.27;96892.94;5033788;28;20095;-73
2022/01/17 01:35:46;;;;;;;0.20;0.20;;;;;;;22.90;15.51;96891.00;5017350;28;20042;-74
2022/01/17 01:38:12;;;;;;;0.20;0.20;;;;;;;22.85;15.29;96883.91;5034156;28;20475;-73
2022/01/17 01:40:37;;;;;;;0.20;0.20;;;;;;;22.95;15.29;96871.69;5033912;28;20033;-73
2022/01/17 01:43:03;;;;;;;0.10;0.10;;;;;;;22.88;15.49;96872.31;5034353;28;20022;-74
2022/01/17 01:45:28;;;;;;;0.15;0.15;;;;;;;22.96;15.35;96856.94;5033727;28;20054;-73
2022/01/17 01:47:54;;;;;;;0.10;0.10;;;;;;;22.98;15.08;96847.25;5034286;28;20075;-73
2022/01/17 01:50:19;;;;;;;0.10;0.10;;;;;;;22.91;15.53;96840.88;5034469;28;20083;-73
2022/01/17 01:52:45;;;;;;;0.20;0.20;;;;;;;22.88;15.42;96839.63;5034227;28;20459;-73
2022/01/17 01:55:12;;;;;;;0.20;0.20;;;;;;;22.95;15.49;96836.28;5017376;28;20033;-73
2022/01/17 01:57:37;;;;;;;0.30;0.20;;;;;;;22.91;15.56;96828.03;5035218;28;20029;-73
2022/01/17 02:00:04;;;;;;;0.20;0.20;;;;;;;22.82;15.41;96813.84;5034647;28;20460;-73
2022/01/17 02:02:30;;;;;;;0.20;0.20;;;;;;;22.92;15.26;96807.03;5034840;28;20025;-74
2022/01/17 02:04:55;;;;;;;0.20;0.20;;;;;;;22.91;15.54;96806.25;5034833;28;20025;-73
2022/01/17 02:07:22;;;;;;;0.20;0.20;;;;;;;23.01;15.33;96807.66;5033560;28;20426;-73
2022/01/17 02:09:48;;;;;;;0.38;0.20;;;;;;;22.99;15.38;96796.28;4982844;28;20045;-73
2022/01/17 02:12:20;;;;;;;0.20;0.20;;;;;;;22.91;15.41;96783.69;5015936;28;20042;-73
2022/01/17 02:14:45;;;;;;;0.10;0.10;;;;;;;22.91;15.22;96770.88;5016735;28;20430;-73
2022/01/17 02:17:11;;;;;;;0.20;0.20;;;;;;;22.96;15.27;96775.25;5033026;28;20041;-73
2022/01/17 02:19:44;;;;;;;0.10;0.10;;;;;;;22.92;15.33;96763.47;5032850;28;20087;-73
2022/01/17 02:22:10;;;;;;;0.17;0.17;;;;;;;23.02;15.37;96763.69;4985047;28;20399;-72
2022/01/17 02:24:35;;;;;;;0.17;0.17;;;;;;;22.89;15.38;96751.38;5034197;28;20033;-72
2022/01/17 02:27:00;;;;;;;0.13;0.13;;;;;;;22.97;15.29;96752.31;5036990;28;20030;-72
2022/01/17 02:29:26;;;;;;;0.20;0.20;;;;;;;22.90;15.25;96739.31;5036619;28;20470;-74
2022/01/17 02:31:51;;;;;;;0.20;0.20;;;;;;;22.90;15.28;96733.88;5036518;28;20022;-73
2022/01/17 02:34:17;;;;;;;0.32;0.20;;;;;;;22.95;15.43;96739.03;5036786;28;20030;-73
2022/01/17 02:36:43;;;;;;;0.20;0.20;;;;;;;22.93;15.30;96738.63;5036564;28;20034;-73
2022/01/17 02:39:08;;;;;;;0.20;0.20;;;;;;;22.90;15.33;96717.56;5036302;28;20525;-73
2022/01/17 02:41:34;;;;;;;0.10;0.10;;;;;;;22.83;15.32;96712.75;5036654;28;20075;-73
2022/01/17 02:44:01;;;;;;;0.20;0.20;;;;;;;22.94;15.36;96710.25;5036662;28;20029;-73
2022/01/17 02:46:27;;;;;;;0.20;0.20;;;;;;;22.99;15.20;96709.97;5036154;28;20107;-73
2022/01/17 02:48:54;;;;;;;0.20;0.20;;;;;;;22.98;15.27;96716.56;5036392;28;20456;-73
2022/01/17 02:51:19;;;;;;;0.20;0.20;;;;;;;22.91;15.30;96710.97;5036396;28;20113;-73
2022/01/17 02:53:44;;;;;;;0.25;0.20;;;;;;;22.96;15.19;96707.97;5036399;28;20487;-73
2022/01/17 02:56:10;;;;;;;0.30;0.30;;;;;;;23.07;15.37;96710.91;5036799;28;20320;-73
2022/01/17 02:58:35;;;;;;;0.20;0.20;;;;;;;22.91;15.41;96702.81;5036789;28;20026;-73
2022/01/17 03:01:04;;;;;;;0.20;0.20;;;;;;;22.89;15.42;96699.66;5036909;28;20097;-73
2022/01/17 03:03:30;;;;;;;0.20;0.20;;;;;;;22.94;15.29;96702.09;5036081;28;20539;-73
2022/01/17 03:05:56;;;;;;;0.20;0.20;;;;;;;22.98;15.40;96697.50;5036654;28;20116;-72
2022/01/17 03:08:22;;;;;;;0.20;0.20;;;;;;;22.88;15.53;96701.56;5036304;28;20027;-72
2022/01/17 03:10:48;;;;;;;0.15;0.15;;;;;;;22.97;15.39;96704.06;5036398;28;20055;-72
2022/01/17 03:13:16;;;;;;;0.20;0.10;;;;;;;22.88;15.62;96692.63;5035954;28;20026;-72
2022/01/17 03:15:43;;;;;;;0.20;0.20;;;;;;;22.86;15.50;96692.19;5036513;28;20041;-73
2022/01/17 03:18:08;;;;;;;0.20;0.20;;;;;;;23.00;15.41;96697.13;5036002;28;20105;-74
2022/01/17 03:20:40;;;;;;;0.20;0.20;;;;;;;22.95;15.03;96692.75;5035791;28;20130;-73
2022/01/17 03:23:08;;;;;;;0.15;0.13;;;;;;;22.91;15.50;96685.69;5035970;28;20049;-73
2022/01/17 03:25:34;;;;;;;0.22;0.22;;;;;;;23.00;15.38;96678.84;5018219;28;20046;-73
2022/01/17 03:27:59;;;;;;;0.20;0.20;;;;;;;22.98;15.36;96675.72;5036125;28;20099;-73
2022/01/17 03:30:26;;;;;;;0.20;0.20;;;;;;;22.88;15.50;96659.97;5035986;28;20025;-73
2022/01/17 03:32:51;;;;;;;0.20;0.20;;;;;;;22.91;15.49;96670.13;5035581;28;20467;-73
2022/01/17 03:35:17;;;;;;;0.17;0.17;;;;;;;22.98;15.56;96666.75;5035991;28;20048;-73
2022/01/17 03:37:44;;;;;;;0.98;0.30;;;;;;;22.96;15.54;96655.44;5035584;28;20131;-73
2022/01/17 03:40:10;;;;;;;0.50;0.25;;;;;;;22.95;15.28;96660.09;5036225;28;20029;-73
2022/01/17 03:42:36;;;;;;;0.20;0.20;;;;;;;22.90;15.55;96652.22;5036624;28;20479;-73
2022/01/17 03:45:03;;;;;;;0.15;0.10;;;;;;;22.91;15.54;96642.91;5036332;28;20024;-73
2022/01/17 03:47:29;;;;;;;0.20;0.20;;;;;;;22.89;15.57;96650.66;5035720;28;20029;-73
2022/01/17 03:49:55;;;;;;;0.20;0.20;;;;;;;22.85;15.65;96641.63;5035586;28;20079;-72
2022/01/17 03:52:20;;;;;;;0.10;0.10;;;;;;;23.02;15.53;96646.59;5036345;28;20018;-73
2022/01/17 03:54:45;;;;;;;0.20;0.20;;;;;;;22.93;15.64;96640.59;5036217;28;20474;-73
2022/01/17 03:57:11;;;;;;;0.15;0.15;;;;;;;22.96;15.56;96647.28;5036069;28;20026;-73
2022/01/17 03:59:36;;;;;;;0.30;0.30;;;;;;;22.96;15.47;96639.91;5036082;28;20037;-73
2022/01/17 04:02:03;;;;;;;0.20;0.20;;;;;;;22.93;15.62;96635.16;5036418;28;20542;-73
2022/01/17 04:04:28;;;;;;;0.20;0.20;;;;;;;22.95;15.55;96641.03;5044231;28;20045;-74
2022/01/17 04:06:54;;;;;;;0.20;0.20;;;;;;;23.00;15.52;96648.13;5046180;28;20041;-73
2022/01/17 04:09:19;;;;;;;0.10;0.10;;;;;;;22.92;15.49;96649.94;5044089;28;20041;-74
2022/01/17 04:11:44;;;;;;;0.30;0.30;;;;;;;22.93;15.68;96653.44;5043215;28;20037;-73
2022/01/17 04:14:10;;;;;;;0.20;0.20;;;;;;;23.05;15.52;96654.09;5042763;28;20482;-73
2022/01/17 04:16:35;;;;;;;0.30;0.30;;;;;;;23.13;15.47;96649.56;5046728;28;20029;-74
2022/01/17 04:19:01;;;;;;;0.20;0.20;;;;;;;23.13;15.51;96654.22;5049339;28;20040;-74
2022/01/17 04:21:32;;;;;;;0.20;0.20;;;;;;;23.04;15.47;96663.41;5050206;28;20029;-73
2022/01/17 04:23:57;;;;;;;0.75;0.20;;;;;;;23.17;15.56;96663.25;5048377;28;20048;-73
2022/01/17 04:26:23;;;;;;;0.20;0.20;;;;;;;23.22;15.25;96649.34;5047335;28;20026;-73
2022/01/17 04:28:48;;;;;;;0.20;0.20;;;;;;;23.18;15.52;96664.81;5046096;28;20072;-73
2022/01/17 04:31:13;;;;;;;0.20;0.20;;;;;;;23.25;15.30;96670.41;5049078;28;20033;-73
2022/01/17 04:33:39;;;;;;;0.30;0.30;;;;;;;23.24;15.57;96671.56;5050425;28;20147;-73
2022/01/17 04:36:07;;;;;;;0.30;0.30;;;;;;;23.36;15.39;96674.09;5049837;28;20032;-73
2022/01/17 04:38:32;;;;;;;0.30;0.30;;;;;;;23.33;15.32;96685.72;5050682;28;20025;-73
2022/01/17 04:41:03;;;;;;;0.30;0.30;;;;;;;23.31;15.45;96688.03;5049195;28;20029;-73
2022/01/17 04:46:06;;;;;;;0.30;0.30;;;;;;;23.30;15.46;96693.81;5026162;28;20042;-73
2022/01/17 04:48:32;;;;;;;0.20;0.20;;;;;;;23.35;15.38;96707.16;5028731;28;20033;-73
2022/01/17 04:50:58;;;;;;;0.20;0.20;;;;;;;23.38;15.15;96703.72;5032233;28;20057;-73
2022/01/17 04:53:27;;;;;;;0.20;0.20;;;;;;;23.40;15.20;96712.31;5030831;28;20026;-73
2022/01/17 04:55:53;;;;;;;0.20;0.20;;;;;;;23.42;15.16;96710.81;5033816;28;20030;-73
2022/01/17 04:58:18;;;;;;;0.10;0.10;;;;;;;23.39;15.40;96721.66;5019276;28;20057;-73
2022/01/17 05:00:47;;;;;;;0.20;0.20;;;;;;;23.50;15.11;96728.06;5028114;28;20025;-73
2022/01/17 05:03:16;;;;;;;0.20;0.20;;;;;;;23.46;15.32;96727.22;5018121;28;20415;-73
2022/01/17 05:05:41;;;;;;;0.20;0.20;;;;;;;23.62;15.21;96736.06;5014516;28;20065;-72
2022/01/17 05:08:06;;;;;;;0.28;0.28;;;;;;;23.56;15.04;96745.69;5014331;28;20037;-73
2022/01/17 05:10:32;;;;;;;0.20;0.20;;;;;;;23.51;15.19;96750.63;5013966;28;20034;-73
2022/01/17 05:12:57;;;;;;;0.20;0.20;;;;;;;23.56;15.22;96756.59;5014427;28;20057;-73
2022/01/17 05:15:31;;;;;;;0.20;0.20;;;;;;;23.55;15.30;96776.03;5013865;28;20029;-73
2022/01/17 05:20:31;;;;;;;0.30;0.30;;;;;;;23.89;14.97;96792.66;5013928;28;20308;-71
2022/01/17 05:22:57;;;;;;;0.22;0.22;;;;;;;23.75;15.08;96799.38;5014119;28;20053;-73
2022/01/17 05:25:22;;;;;;;0.98;0.20;;;;;;;23.71;14.98;96809.41;5014168;28;20550;-74
2022/01/17 05:27:47;;;;;;;0.20;0.20;;;;;;;23.73;15.20;96828.94;5014064;28;20095;-73
2022/01/17 05:30:14;;;;;;;0.13;0.13;;;;;;;23.88;15.10;96832.75;5013431;28;20362;-73
2022/01/17 05:32:40;;;;;;;0.17;0.17;;;;;;;23.73;15.28;96844.50;5013847;28;20033;-73
2022/01/17 05:35:06;;;;;;;0.20;0.20;;;;;;;23.83;15.21;96849.41;5013488;28;20458;-73
2022/01/17 05:37:31;;;;;;;0.20;0.20;;;;;;;23.80;15.09;96855.53;5013555;28;20022;-74
2022/01/17 05:39:57;;;;;;;0.20;0.20;;;;;;;23.71;15.07;96866.66;5013677;28;20030;-73
2022/01/17 05:42:24;;;;;;;0.20;0.10;;;;;;;23.85;15.10;96874.34;5013581;28;20389;-72
2022/01/17 05:44:50;;;;;;;0.22;0.20;;;;;;;23.81;14.95;96898.81;5014703;28;20053;-73
2022/01/17 05:47:15;;;;;;;0.20;0.20;;;;;;;23.80;14.92;96904.59;4992913;28;20401;-73
2022/01/17 05:49:41;;;;;;;0.20;0.20;;;;;;;23.78;15.23;96913.16;4994685;28;20038;-73
2022/01/17 05:52:07;;;;;;;0.20;0.20;;;;;;;23.81;15.07;96923.38;4995519;28;20034;-73
2022/01/17 05:54:32;;;;;;;0.20;0.20;;;;;;;23.87;15.25;96925.81;4997625;28;20026;-73
2022/01/17 05:56:58;;;;;;;0.20;0.20;;;;;;;23.82;15.32;96929.63;4997040;28;20027;-72
2022/01/17 05:59:23;;;;;;;0.20;0.20;;;;;;;23.87;15.31;96944.88;4997516;28;20038;-73
2022/01/17 06:01:48;;;;;;;0.20;0.20;;;;;;;23.92;15.07;96961.78;4999500;28;20063;-73
2022/01/17 06:04:14;;;;;;;0.40;0.20;;;;;;;23.98;15.27;96978.63;4999785;28;20037;-74
2022/01/17 06:06:39;;;;;;;2.65;0.30;;;;;;;23.96;15.34;96992.63;5000928;28;20038;-74
2022/01/17 06:09:05;;;;;;;0.20;0.20;;;;;;;23.99;15.59;97021.09;5000280;28;20465;-74
2022/01/17 06:11:33;;;;;;;0.47;0.30;;;;;;;23.99;15.79;97029.28;5000561;28;20033;-73
2022/01/17 06:13:59;;;;;;;0.20;0.20;;;;;;;24.01;16.12;97040.66;5018296;28;20072;-74
2022/01/17 06:16:25;;;;;;;0.20;0.20;;;;;;;24.04;15.40;97067.19;5017334;28;20079;-73
2022/01/17 06:18:50;;;;;;;0.65;0.30;;;;;;;24.06;15.80;97089.47;5017194;28;20021;-73
2022/01/17 06:21:16;;;;;;;0.30;0.30;;;;;;;24.03;15.40;97098.34;5016842;28;20026;-74
2022/01/17 06:23:41;;;;;;;0.30;0.30;;;;;;;24.10;15.33;97119.53;5017128;28;20037;-74
2022/01/17 06:26:06;;;;;;;0.40;0.30;;;;;;;24.06;15.59;97135.84;5017598;28;20049;-74
2022/01/17 06:28:32;;;;;;;0.32;0.32;;;;;;;24.07;15.18;97121.03;5018109;28;20113;-73
2022/01/17 06:30:57;;;;;;;0.28;0.28;;;;;;;24.22;14.76;97127.59;5017221;28;20423;-73
2022/01/17 06:33:23;;;;;;;0.55;0.25;;;;;;;24.14;15.17;97132.09;5017214;28;20034;-73
2022/01/17 06:35:48;;;;;;;0.40;0.30;;;;;;;24.13;14.58;97141.44;5017482;28;20026;-74
2022/01/17 06:38:14;;;;;;;0.38;0.35;;;;;;;24.34;14.55;97154.75;5016646;28;20486;-74
2022/01/17 06:40:39;;;;;;;0.25;0.25;;;;;;;24.37;14.49;97169.63;5016574;28;20030;-74
2022/01/17 06:43:08;;;;;;;0.20;0.20;;;;;;;24.51;14.65;97169.13;5016753;28;20029;-73
2022/01/17 06:45:34;;;;;;;0.63;0.30;;;;;;;24.73;14.20;97173.91;5021199;28;20049;-73
2022/01/17 06:48:00;;;;;;;1.75;0.20;;;;;;;24.70;14.46;97201.94;5036504;28;20052;-73
2022/01/17 06:50:26;;;;;;;0.70;0.30;;;;;;;24.74;14.31;97212.94;5036017;28;20029;-73
2022/01/17 06:52:51;;;;;;;0.22;0.22;;;;;;;24.70;14.40;97223.78;5036287;28;20459;-72
2022/01/17 06:55:17;;;;;;;1.13;0.30;;;;;;;24.86;14.11;97242.81;5036254;28;20101;-73
2022/01/17 06:57:42;;;;;;;0.20;0.20;;;;;;;25.05;14.23;97235.78;5036363;28;20022;-74
2022/01/17 07:00:10;;;;;;;1.17;0.40;;;;;;;25.11;14.05;97220.66;5036711;28;20030;-74
2022/01/17 07:02:42;;;;;;;1.23;0.65;;;;;;;25.09;14.15;97228.44;5038229;28;20167;-74
2022/01/17 07:05:08;;;;;;;8.82;3.92;;;;;;;25.13;14.24;97229.31;5019757;28;20083;-75
2022/01/17 07:07:33;;;;;;;6.95;3.50;;;;;;;24.92;14.14;97240.59;5036584;28;20468;-75
2022/01/17 07:09:59;;;;;;;6.43;3.10;;;;;;;24.97;14.13;97253.97;5035935;28;20021;-75
2022/01/17 07:12:24;;;;;;;5.05;2.60;;;;;;;25.10;13.82;97262.81;5034779;28;20025;-74
2022/01/17 07:14:50;;;;;;;5.97;2.72;;;;;;;25.08;13.77;97276.06;5035408;28;20057;-74
2022/01/17 07:17:15;;;;;;;15.57;6.18;;;;;;;25.04;13.52;97277.91;5035422;28;20021;-73
2022/01/17 07:19:42;;;;;;;28.20;9.95;;;;;;;25.06;13.73;97286.53;5035836;28;20032;-74
2022/01/17 07:22:07;;;;;;;27.23;10.02;;;;;;;25.00;13.59;97298.91;5036070;28;20017;-75
2022/01/17 07:24:33;;;;;;;19.63;7.82;;;;;;;25.04;13.33;97313.41;5036238;28;20032;-76
2022/01/17 07:26:58;;;;;;;20.80;7.55;;;;;;;25.02;13.67;97316.50;5001620;28;20038;-74
2022/01/17 07:29:27;;;;;;;31.00;12.15;;;;;;;25.11;13.50;97329.94;5036748;28;20072;-76
2022/01/17 07:31:53;;;;;;;21.80;9.52;;;;;;;25.16;13.47;97332.41;5018954;28;20116;-74
2022/01/17 07:34:19;;;;;;;9.98;5.05;;;;;;;25.18;13.24;97334.78;5018723;28;20025;-73
2022/01/17 07:36:44;;;;;;;10.07;4.15;;;;;;;25.40;12.95;97346.97;5001182;28;20033;-73
2022/01/17 07:39:10;;;;;;;10.98;4.32;;;;;;;25.54;12.71;97339.06;5036107;28;20041;-73
2022/01/17 07:41:36;;;;;;;13.18;6.05;;;;;;;25.50;12.86;97351.88;5036179;28;20026;-73
2022/01/17 07:44:03;;;;;;;12.65;5.55;;;;;;;25.45;12.78;97369.34;5036612;28;20044;-74
2022/01/17 07:46:35;;;;;;;9.20;4.10;;;;;;;25.68;12.46;97393.22;5035966;28;20046;-74
2022/01/17 07:49:10;;;;;;;7.03;3.30;;;;;;;25.58;12.44;97383.69;5035714;28;20084;-73
2022/01/17 07:51:40;;;;;;;10.45;4.35;;;;;;;25.67;12.32;97417.06;5035632;28;20100;-74
2022/01/17 07:54:07;;;;;;;8.30;4.00;;;;;;;25.75;12.22;97409.00;5036782;28;20025;-73
2022/01/17 07:56:33;;;;;;;6.93;2.58;;;;;;;25.79;12.10;97418.06;5035569;28;20117;-73
2022/01/17 07:58:59;;;;;;;21.33;8.52;;;;;;;25.89;12.15;97422.16;5000767;28;20048;-72
2022/01/17 08:01:26;;;;;;;8.88;4.05;;;;;;;25.84;11.95;97436.94;5035418;28;20028;-73
2022/01/17 08:03:51;;;;;;;16.10;6.88;;;;;;;25.85;12.09;97444.78;5035653;28;20095;-73
2022/01/17 08:06:16;;;;;;;15.90;5.25;;;;;;;25.89;11.73;97455.78;5035327;28;20468;-72
2022/01/17 08:08:42;;;;;;;21.13;7.13;;;;;;;25.76;12.12;97462.53;5017037;28;20044;-73
2022/01/17 08:11:07;;;;;;;13.23;5.75;;;;;;;25.68;11.60;97476.09;5034560;28;20025;-75
2022/01/17 08:13:33;;;;;;;14.88;5.28;;;;;;;25.70;12.03;97483.13;5034955;28;20025;-72
2022/01/17 08:15:58;;;;;;;17.13;7.10;;;;;;;25.61;11.89;97495.06;5035175;28;20021;-74
2022/01/17 08:18:26;;;;;;;22.25;8.02;;;;;;;25.53;11.76;97517.16;5017860;28;20486;-75
2022/01/17 08:20:53;;;;;;;16.73;6.60;;;;;;;25.70;11.53;97522.22;5036282;28;20025;-74
2022/01/17 08:23:19;;;;;;;34.38;13.85;;;;;;;25.66;11.68;97537.75;5036526;28;20036;-74
2022/01/17 08:25:44;;;;;;;20.85;9.15;;;;;;;25.58;11.53;97549.69;5036854;28;20472;-74
2022/01/17 08:28:09;;;;;;;16.52;5.70;;;;;;;25.58;11.82;97547.75;4985079;28;20095;-74
2022/01/17 08:30:35;;;;;;;11.02;5.00;;;;;;;25.52;11.57;97557.34;5037474;28;20075;-74
2022/01/17 08:33:00;;;;;;;83.53;35.20;;;;;;;25.56;11.92;97566.44;4991148;28;20093;-74
2022/01/17 08:35:26;;;;;;;46.00;17.60;;;;;;;25.67;11.52;97581.13;5037470;28;20440;-74
2022/01/17 08:37:51;;;;;;;89.55;36.20;;;;;;;25.61;11.53;97592.72;5018495;28;20430;-73
2022/01/17 08:40:22;;;;;;;36.88;15.85;;;;;;;25.61;11.28;97598.19;5021164;28;20029;-74
2022/01/17 08:42:49;;;;;;;18.52;7.53;;;;;;;25.57;11.56;97608.25;5002890;28;20057;-74
2022/01/17 08:45:15;;;;;;;11.30;5.22;;;;;;;25.61;11.40;97623.59;4986124;28;20040;-73
2022/01/17 08:47:49;;;;;;;90.35;34.17;;;;;;;25.53;11.43;97624.56;5037056;28;20037;-74
2022/01/17 08:50:17;;;;;;;29.38;12.80;;;;;;;25.66;11.08;97633.47;5036055;28;20041;-74
2022/01/17 08:52:43;;;;;;;9.13;3.38;;;;;;;25.65;11.11;97634.63;5035341;28;20030;-74
2022/01/17 08:55:09;;;;;;;20.88;9.30;;;;;;;25.77;10.86;97639.19;5039167;28;20060;-74
2022/01/17 08:57:36;;;;;;;168.25;60.97;;;;;;;25.77;11.21;97639.19;4984494;28;20365;-75
2022/01/17 09:00:07;;;;;;;79.85;32.92;;;;;;;25.94;10.76;97644.31;5037271;28;20033;-75
2022/01/17 09:02:34;;;;;;;41.70;16.20;;;;;;;25.99;10.72;97665.13;5036189;28;20113;-74
2022/01/17 09:04:59;;;;;;;42.92;16.75;;;;;;;26.00;10.81;97667.50;5017445;28;20098;-75
2022/01/17 09:07:24;;;;;;;20.20;7.20;;;;;;;26.09;10.71;97672.78;5034485;28;20029;-74
2022/01/17 09:09:51;;;;;;;11.73;4.60;;;;;;;26.03;10.33;97688.69;5034661;28;20021;-75
2022/01/17 09:12:16;;;;;;;8.65;3.05;;;;;;;26.00;10.28;97689.38;5034067;28;20029;-74
2022/01/17 09:14:42;;;;;;;5.07;2.40;;;;;;;25.75;10.50;97702.47;5034082;28;20030;-74
2022/01/17 09:17:07;;;;;;;3.63;1.63;;;;;;;25.91;10.14;97705.19;5033701;28;20376;-74
2022/01/17 09:19:37;;;;;;;3.67;1.50;;;;;;;25.85;10.36;97736.69;5033799;28;20098;-74
2022/01/17 09:22:03;;;;;;;3.47;1.08;;;;;;;25.82;10.41;97729.97;5033622;28;20065;-74
2022/01/17 09:24:28;;;;;;;1.98;0.98;;;;;;;25.80;10.35;97742.41;5033779;28;20049;-73
2022/01/17 09:26:54;;;;;;;1.40;0.73;;;;;;;25.68;10.52;97765.97;5033518;28;20091;-74
2022/01/17 09:29:19;;;;;;;2.72;0.85;;;;;;;25.60;10.34;97766.16;5034308;28;20428;-74
2022/01/17 09:31:45;;;;;;;3.80;0.93;;;;;;;25.72;10.21;97773.50;5033255;28;20523;-74
2022/01/17 09:34:10;;;;;;;1.08;0.70;;;;;;;25.71;10.27;97789.09;5032559;28;20025;-74
2022/01/17 09:36:36;;;;;;;0.75;0.43;;;;;;;25.66;10.09;97803.03;5033219;28;20026;-74
2022/01/17 09:39:03;;;;;;;1.63;0.57;;;;;;;25.67;10.04;97819.09;5032506;28;20029;-75
2022/01/17 09:41:28;;;;;;;1.65;0.60;;;;;;;25.54;10.47;97828.47;5033031;28;20120;-74
2022/01/17 09:43:54;;;;;;;2.33;0.50;;;;;;;25.74;9.98;97836.84;5033470;28;20036;-74
2022/01/17 09:46:23;;;;;;;3.78;0.52;;;;;;;25.55;10.27;97827.34;5033158;28;20049;-74
2022/01/17 09:48:50;;;;;;;0.85;0.50;;;;;;;25.59;10.05;97841.13;5032695;28;20428;-73
2022/01/17 09:51:30;;;;;;;0.60;0.40;;;;;;;25.62;10.11;97843.94;5033463;28;20052;-74
2022/01/17 09:53:56;;;;;;;1.05;0.60;;;;;;;25.42;10.16;97858.63;5034072;28;20036;-74
2022/01/17 09:56:23;;;;;;;2.30;0.70;;;;;;;25.38;10.38;97864.00;5015426;28;20026;-74
2022/01/17 09:58:49;;;;;;;0.52;0.50;;;;;;;25.43;10.20;97876.63;5032476;28;20025;-73
2022/01/17 10:01:14;;;;;;;0.63;0.50;;;;;;;25.40;10.31;97880.06;5031594;28;20087;-74
2022/01/17 10:03:41;;;;;;;1.48;0.38;;;;;;;25.45;10.31;97874.34;5033401;28;20037;-74
2022/01/17 10:06:08;;;;;;;1.83;0.50;;;;;;;25.52;10.27;97880.00;5033657;28;20032;-72
2022/01/17 10:08:35;;;;;;;0.50;0.40;;;;;;;25.54;10.33;97887.84;5015600;28;20464;-72
2022/01/17 10:11:02;;;;;;;0.90;0.30;;;;;;;25.44;10.35;97889.13;5016068;28;20037;-73
2022/01/17 10:13:29;;;;;;;1.23;0.30;;;;;;;25.55;10.57;97890.25;4998990;28;20038;-72
2022/01/17 10:16:21;;;;;;;0.32;0.32;;;;;;;25.46;10.65;97903.28;5033651;28;20037;-75
2022/01/17 10:19:01;;;;;;;3.05;0.40;;;;;;;25.54;10.55;97915.19;5024763;28;20041;-74
2022/01/17 10:21:44;;;;;;;3.65;0.60;;;;;;;25.49;10.43;97927.16;5032982;28;20029;-74
2022/01/17 10:35:25;;;;;;;3.60;1.42;;;;;;;25.68;9.63;97993.00;5033334;28;19919;-75
2022/01/17 10:37:56;;;;;;;5.28;2.35;;;;;;;25.54;10.08;97999.97;5036085;28;20124;-75
2022/01/17 10:40:22;;;;;;;10.15;4.65;;;;;;;25.60;9.68;97990.41;5032800;28;20022;-74
2022/01/17 10:42:50;;;;;;;73.22;27.55;;;;;;;25.48;10.05;98015.84;5034457;28;20034;-75
2022/01/17 10:45:24;;;;;;;10.40;4.20;;;;;;;25.49;9.64;98022.88;4984103;28;20047;-76
2022/01/17 10:47:55;;;;;;;47.40;17.38;;;;;;;25.54;10.03;98036.31;5020579;28;20053;-75
2022/01/17 10:50:32;;;;;;;22.30;10.75;;;;;;;25.43;10.11;98040.66;5002701;28;20049;-76
2022/01/17 10:53:04;;;;;;;8.10;3.63;;;;;;;25.62;10.05;98038.13;5020303;28;20098;-76
2022/01/17 10:55:41;;;;;;;7.97;3.28;;;;;;;25.52;9.68;98033.13;4986816;28;20037;-78
2022/01/17 10:58:28;;;;;;;6.90;2.25;;;;;;;25.51;10.13;98053.44;5038048;28;20452;-78
2022/01/17 11:01:12;;;;;;;3.47;1.55;;;;;;;25.55;10.00;98057.06;5038284;28;20034;-78
2022/01/17 11:03:40;;;;;;;2.88;1.38;;;;;;;25.52;10.12;98068.69;5038666;28;20044;-80
2022/01/17 11:06:10;;;;;;;3.22;0.90;;;;;;;25.48;9.82;98071.31;5038731;28;20033;-78
2022/01/17 11:08:39;;;;;;;1.58;0.95;;;;;;;25.52;9.46;98070.63;5037786;28;20101;-80
2022/01/17 11:11:07;;;;;;;1.02;0.55;;;;;;;25.48;9.39;98086.94;5037734;28;20382;-78
2022/01/17 11:13:33;;;;;;;1.17;0.70;;;;;;;25.56;9.58;98104.34;5037679;28;20029;-79
2022/01/17 11:16:11;;;;;;;1.70;0.80;;;;;;;25.46;9.52;98108.34;4988011;28;20112;-78
2022/01/17 11:18:37;;;;;;;2.38;0.95;;;;;;;25.52;9.37;98119.84;5036326;28;20048;-79
2022/01/17 11:21:11;;;;;;;1.60;0.80;;;;;;;25.64;9.18;98128.03;5002447;28;20037;-78
2022/01/17 11:23:37;;;;;;;0.70;0.50;;;;;;;25.59;9.33;98142.72;5019042;28;20112;-78
2022/01/17 11:26:07;;;;;;;0.95;0.60;;;;;;;25.44;9.21;98160.63;5037738;28;20069;-79
2022/01/17 11:28:36;;;;;;;3.55;1.60;;;;;;;25.54;9.14;98164.84;5001064;28;20037;-75
2022/01/17 11:31:06;;;;;;;2.72;1.17;;;;;;;25.37;9.01;98174.06;5035977;28;20112;-76
2022/01/17 11:33:32;;;;;;;0.75;0.60;;;;;;;25.47;9.10;98189.22;5035893;28;20476;-74
2022/01/17 11:35:58;;;;;;;0.40;0.30;;;;;;;25.62;9.03;98199.50;5035574;28;20044;-74
2022/01/17 11:38:30;;;;;;;1.60;0.82;;;;;;;25.46;8.95;98193.13;5036535;28;20036;-76
2022/01/17 11:40:57;;;;;;;3.55;1.35;;;;;;;25.50;9.20;98204.94;5035796;28;20040;-77
2022/01/17 11:43:34;;;;;;;2.25;1.15;;;;;;;25.43;9.13;98212.94;5018423;28;20082;-76
2022/01/17 11:46:20;;;;;;;3.55;1.45;;;;;;;25.44;9.09;98230.91;5035863;28;20136;-77
2022/01/17 11:48:56;;;;;;;3.58;1.10;;;;;;;25.49;9.11;98227.97;5017250;28;20045;-76
2022/01/17 11:51:22;;;;;;;3.53;1.70;;;;;;;25.40;9.11;98232.72;5036914;28;20022;-78
2022/01/17 11:53:51;;;;;;;0.80;0.57;;;;;;;25.30;8.86;98248.44;5018004;28;20348;-75
2022/01/17 11:56:36;;;;;;;0.63;0.32;;;;;;;25.44;8.81;98261.00;4968396;28;20045;-77
2022/01/17 11:59:01;;;;;;;0.40;0.40;;;;;;;25.53;9.18;98269.91;5034167;28;20472;-76